Time;durP1;ratioP1;P1;durP2;ratioP2;P2;SDS_P1;SDS_P2;PMS_P1;PMS_P2;Temp;Humidity;BMP_temperature;BMP_pressure;BME280_temperature;BME280_humidity;BME280_pressure;Samples;Min_cycle;Max_cycle;Signal;HPM_P1;HPM_P2
2022/09/07 00:03:22;;;;;;;9.35;5.68;;;;;;;17.89;100.00;101198.09;10374562;28;20045;-87
2022/09/07 00:08:24;;;;;;;10.05;6.95;;;;;;;17.90;100.00;101188.63;10403726;28;20037;-92
2022/09/07 00:13:26;;;;;;;9.70;6.65;;;;;;;17.77;100.00;101206.00;10369589;28;20038;-94
2022/09/07 00:18:27;;;;;;;13.07;7.15;;;;;;;17.46;100.00;101178.47;10386295;28;20327;-96
2022/09/07 00:23:27;;;;;;;13.80;8.27;;;;;;;17.46;100.00;101181.25;10407587;28;20056;-95
2022/09/07 00:28:28;;;;;;;10.30;7.68;;;;;;;17.34;100.00;101172.47;10364296;28;20029;-93
2022/09/07 00:33:29;;;;;;;11.77;7.75;;;;;;;17.31;100.00;101171.09;10380627;28;20065;-90
2022/09/07 00:38:29;;;;;;;11.00;8.25;;;;;;;17.44;100.00;101185.47;10391550;28;20049;-93
2022/09/07 00:43:35;;;;;;;11.43;7.22;;;;;;;17.43;100.00;101190.22;10378757;28;20542;-95
2022/09/07 00:48:41;;;;;;;8.90;7.53;;;;;;;17.23;100.00;101168.94;10374320;28;20112;-96
2022/09/07 00:53:54;;;;;;;12.40;7.85;;;;;;;17.24;100.00;101176.19;10448705;28;20049;-93
2022/09/07 00:58:55;;;;;;;11.52;9.43;;;;;;;17.31;100.00;101186.97;10450761;28;20043;-94
2022/09/07 01:03:56;;;;;;;11.07;9.02;;;;;;;17.11;100.00;101182.41;10434996;28;20048;-96
2022/09/07 01:09:00;;;;;;;11.40;9.00;;;;;;;17.18;100.00;101179.28;10431270;28;20097;-94
2022/09/07 01:14:02;;;;;;;12.75;8.48;;;;;;;17.11;100.00;101207.44;10399400;28;20100;-89
2022/09/07 01:19:14;;;;;;;9.88;8.50;;;;;;;17.09;100.00;101196.59;10404640;28;20116;-89
2022/09/07 01:24:29;;;;;;;11.40;9.18;;;;;;;17.10;100.00;101216.94;10463046;28;20129;-93
2022/09/07 01:29:48;;;;;;;12.65;8.88;;;;;;;17.07;100.00;101315.69;10446755;28;20064;-92
2022/09/07 01:34:52;;;;;;;19.50;10.32;;;;;;;17.00;100.00;101356.91;10446153;28;20061;-82
2022/09/07 01:39:54;;;;;;;22.02;12.82;;;;;;;16.64;100.00;101340.34;10395423;28;20041;-82
2022/09/07 01:44:56;;;;;;;43.83;17.45;;;;;;;16.43;100.00;101394.31;10396355;28;20065;-77
2022/09/07 01:50:06;;;;;;;29.88;18.70;;;;;;;16.05;100.00;101360.50;10403543;28;20045;-77
2022/09/07 01:55:16;;;;;;;25.55;18.88;;;;;;;15.68;100.00;101328.28;10413989;28;20052;-77
2022/09/07 02:00:17;;;;;;;29.83;21.05;;;;;;;15.52;100.00;101325.50;10400578;28;20038;-77
2022/09/07 02:05:20;;;;;;;25.92;20.48;;;;;;;15.46;100.00;101315.50;10397155;28;20505;-77
2022/09/07 02:10:49;;;;;;;32.45;23.98;;;;;;;15.47;100.00;101299.69;10383500;28;20045;-76
2022/09/07 02:16:06;;;;;;;45.85;31.55;;;;;;;15.36;100.00;101268.34;10432886;28;20131;-76
2022/09/07 02:21:07;;;;;;;47.55;33.03;;;;;;;15.19;100.00;101223.38;10371095;28;20053;-75
2022/09/07 02:26:16;;;;;;;51.35;31.67;;;;;;;15.25;100.00;101233.38;10388846;28;20042;-75
2022/09/07 02:31:16;;;;;;;41.80;29.08;;;;;;;15.32;100.00;101236.72;10375081;28;20052;-74
2022/09/07 02:36:17;;;;;;;41.78;31.65;;;;;;;15.32;100.00;101248.63;10376945;28;20034;-75
2022/09/07 02:41:34;;;;;;;57.78;32.85;;;;;;;15.46;100.00;101246.16;10391652;28;20068;-75
2022/09/07 02:46:45;;;;;;;45.47;32.47;;;;;;;15.53;100.00;101221.72;10393533;28;20056;-75
2022/09/07 02:51:58;;;;;;;50.92;34.03;;;;;;;15.62;100.00;101219.19;10420286;28;20128;-74
2022/09/07 02:57:19;;;;;;;55.35;36.95;;;;;;;15.69;100.00;101246.69;10414606;28;20053;-76
2022/09/07 03:02:38;;;;;;;49.50;34.00;;;;;;;15.74;100.00;101252.25;10420301;28;20083;-75
2022/09/07 03:08:07;;;;;;;50.70;35.80;;;;;;;15.70;100.00;101256.66;10421867;28;20316;-75
2022/09/07 03:13:08;;;;;;;56.83;38.50;;;;;;;15.82;100.00;101267.50;10409775;28;20105;-75
2022/09/07 03:18:11;;;;;;;59.72;38.95;;;;;;;15.86;100.00;101257.50;10403616;28;20030;-75
2022/09/07 03:23:11;;;;;;;63.08;39.72;;;;;;;15.69;100.00;101225.31;10421854;28;20040;-75
2022/09/07 03:28:12;;;;;;;77.13;42.15;;;;;;;15.65;100.00;101202.00;10385622;28;20060;-75
2022/09/07 03:33:14;;;;;;;73.75;42.95;;;;;;;15.58;100.00;101200.59;10379180;28;20057;-75
2022/09/07 03:38:15;;;;;;;69.07;42.90;;;;;;;15.63;100.00;101214.50;10378776;28;20062;-76
2022/09/07 03:43:16;;;;;;;62.05;40.40;;;;;;;15.54;100.00;101183.69;10377884;28;20133;-75
2022/09/07 03:48:17;;;;;;;67.85;41.85;;;;;;;15.51;100.00;101168.44;10379620;28;20048;-76
2022/09/07 03:53:17;;;;;;;66.80;43.03;;;;;;;15.65;100.00;101184.50;10380101;28;20038;-75
2022/09/07 03:58:18;;;;;;;71.43;44.90;;;;;;;15.55;100.00;101171.47;10362935;28;20034;-76
2022/09/07 04:03:18;;;;;;;91.47;45.65;;;;;;;15.57;100.00;101171.22;10377620;28;20084;-75
2022/09/07 04:08:18;;;;;;;72.35;44.50;;;;;;;15.45;100.00;101143.75;10385246;28;20497;-75
2022/09/07 04:13:19;;;;;;;68.63;44.42;;;;;;;15.54;100.00;101155.94;10400762;28;20037;-76
2022/09/07 04:18:20;;;;;;;81.05;47.65;;;;;;;15.60;100.00;101162.31;10399950;28;20109;-75
2022/09/07 04:23:20;;;;;;;77.85;49.53;;;;;;;15.52;100.00;101130.41;10378839;28;20040;-75
2022/09/07 04:28:21;;;;;;;79.97;47.45;;;;;;;15.44;100.00;101134.59;10362075;28;20093;-75
2022/09/07 04:33:21;;;;;;;76.10;48.15;;;;;;;15.41;100.00;101139.88;10369546;28;20104;-75
2022/09/07 04:38:22;;;;;;;76.18;46.92;;;;;;;15.33;100.00;101138.50;10366874;28;20056;-75
2022/09/07 04:43:22;;;;;;;76.43;48.05;;;;;;;15.36;100.00;101145.41;10416734;28;20038;-76
2022/09/07 04:48:23;;;;;;;80.93;50.20;;;;;;;15.39;100.00;101154.03;10384767;28;20042;-75
2022/09/07 04:53:23;;;;;;;73.03;47.83;;;;;;;15.38;100.00;101144.06;10418255;28;20056;-75
2022/09/07 04:58:24;;;;;;;81.45;48.35;;;;;;;15.38;100.00;101145.97;10459415;28;20071;-75
2022/09/07 05:03:24;;;;;;;80.45;50.42;;;;;;;15.32;100.00;101139.63;10457329;28;20048;-75
2022/09/07 05:08:25;;;;;;;81.55;50.15;;;;;;;15.24;100.00;101124.38;10424198;28;20128;-76
2022/09/07 05:13:26;;;;;;;74.35;47.85;;;;;;;15.19;100.00;101121.59;10381122;28;20046;-76
2022/09/07 05:18:27;;;;;;;74.63;47.72;;;;;;;15.27;100.00;101134.88;10397492;28;20038;-75
2022/09/07 05:23:27;;;;;;;83.00;49.30;;;;;;;15.37;100.00;101150.69;10382140;28;20034;-75
2022/09/07 05:28:28;;;;;;;73.80;48.17;;;;;;;15.28;100.00;101141.28;10374749;28;20081;-76
2022/09/07 05:33:28;;;;;;;77.22;50.25;;;;;;;15.28;100.00;101149.63;10373499;28;20540;-75
2022/09/07 05:38:29;;;;;;;78.32;47.17;;;;;;;15.26;100.00;101154.59;10374121;28;20038;-74
2022/09/07 05:43:29;;;;;;;74.15;50.38;;;;;;;15.23;100.00;101160.69;10374204;28;20049;-75
2022/09/07 05:48:30;;;;;;;72.25;46.72;;;;;;;15.29;100.00;101184.56;10393980;28;20061;-75
2022/09/07 05:53:33;;;;;;;68.15;45.95;;;;;;;15.34;100.00;101185.38;10381265;28;20037;-75
2022/09/07 05:58:34;;;;;;;66.68;46.03;;;;;;;15.26;100.00;101168.47;10350913;28;20417;-75
2022/09/07 06:03:35;;;;;;;75.22;46.45;;;;;;;15.42;100.00;101183.13;10413043;28;20037;-75
2022/09/07 06:08:36;;;;;;;67.47;45.70;;;;;;;15.34;100.00;101154.88;10364910;28;20038;-76
2022/09/07 06:13:37;;;;;;;70.30;46.38;;;;;;;15.43;100.00;101166.22;10396734;28;20494;-76
2022/09/07 06:18:39;;;;;;;68.32;44.00;;;;;;;15.44;100.00;101170.69;10393344;28;20033;-76
2022/09/07 06:23:40;;;;;;;57.97;41.15;;;;;;;15.54;100.00;101184.53;10406280;28;20163;-76
2022/09/07 06:28:45;;;;;;;60.72;43.47;;;;;;;15.61;100.00;101183.41;10423436;28;20552;-76
2022/09/07 06:33:46;;;;;;;61.33;44.15;;;;;;;15.63;100.00;101175.63;10420949;28;20332;-77
2022/09/07 06:38:47;;;;;;;59.15;41.35;;;;;;;15.87;100.00;101189.75;10379453;28;20501;-77
2022/09/07 06:43:48;;;;;;;58.42;42.35;;;;;;;16.12;100.00;101214.66;10396386;28;20033;-77
2022/09/07 06:48:54;;;;;;;57.45;39.78;;;;;;;16.19;100.00;101197.69;10402223;28;20423;-77
2022/09/07 06:59:14;;;;;;;51.28;37.95;;;;;;;16.49;100.00;101226.44;10439007;28;19924;-78
2022/09/07 07:04:14;;;;;;;54.15;38.17;;;;;;;16.57;100.00;101203.59;10418311;28;20045;-77
2022/09/07 07:09:15;;;;;;;47.03;37.33;;;;;;;16.99;100.00;101212.53;10385397;28;20049;-79
2022/09/07 07:14:16;;;;;;;39.92;31.90;;;;;;;17.08;100.00;101194.13;10369133;28;20080;-80
2022/09/07 07:19:16;;;;;;;36.28;29.38;;;;;;;17.21;100.00;101221.28;10371622;28;20542;-78
2022/09/07 07:24:17;;;;;;;34.88;27.15;;;;;;;16.19;100.00;101044.91;10362684;28;20033;-79
2022/09/07 07:29:18;;;;;;;31.17;27.65;;;;;;;16.78;100.00;101153.44;10368913;28;20169;-79
2022/09/07 07:34:37;;;;;;;33.88;28.00;;;;;;;17.14;100.00;101226.34;10369387;28;20096;-79
2022/09/07 07:39:37;;;;;;;33.22;25.85;;;;;;;17.11;100.00;101235.25;10356940;28;20030;-80
2022/09/07 07:44:38;;;;;;;31.60;27.20;;;;;;;17.06;100.00;101230.56;10337637;28;20538;-80
2022/09/07 07:49:38;;;;;;;31.98;27.15;;;;;;;17.08;100.00;101233.91;10344662;28;20061;-81
2022/09/07 07:54:39;;;;;;;35.50;26.48;;;;;;;17.13;100.00;101239.41;10373765;28;20097;-82
2022/09/07 07:59:39;;;;;;;30.70;27.35;;;;;;;17.19;100.00;101248.56;10345841;28;20490;-82
2022/09/07 08:04:40;;;;;;;32.90;28.80;;;;;;;17.28;100.00;101232.06;10326304;28;20034;-83
2022/09/07 08:09:41;;;;;;;35.90;27.05;;;;;;;17.43;100.00;101240.31;10327948;28;20041;-83
2022/09/07 08:14:42;;;;;;;31.33;26.23;;;;;;;17.52;100.00;101260.00;10363795;28;20037;-83
2022/09/07 08:19:42;;;;;;;29.40;25.70;;;;;;;17.15;100.00;101195.44;10394656;28;20064;-84
2022/09/07 08:24:43;;;;;;;28.38;25.05;;;;;;;17.24;100.00;101197.59;10433595;28;20033;-83
2022/09/07 08:29:44;;;;;;;27.35;23.27;;;;;;;17.64;100.00;101254.03;10431955;28;20029;-82
2022/09/07 08:34:44;;;;;;;28.55;23.95;;;;;;;17.79;100.00;101253.88;10398516;28;20045;-83
2022/09/07 08:39:45;;;;;;;28.15;23.02;;;;;;;17.99;100.00;101252.06;10415943;28;20037;-83
2022/09/07 08:45:16;;;;;;;27.23;22.05;;;;;;;18.09;100.00;101257.53;10375645;28;20127;-83
2022/09/07 08:50:22;;;;;;;23.55;21.05;;;;;;;18.14;100.00;101255.47;10406354;28;20120;-80
2022/09/07 08:55:26;;;;;;;24.40;20.08;;;;;;;18.35;100.00;101253.31;10429964;28;20053;-83
2022/09/07 09:00:27;;;;;;;22.58;18.50;;;;;;;18.64;100.00;101246.78;10403554;28;20034;-81
2022/09/07 09:05:46;;;;;;;23.48;17.45;;;;;;;19.01;100.00;101245.16;10414485;28;20536;-81
2022/09/07 09:11:00;;;;;;;19.02;16.20;;;;;;;19.21;100.00;101249.59;10432181;28;20057;-83
2022/09/07 09:16:00;;;;;;;17.85;15.93;;;;;;;19.15;100.00;101246.06;10400027;28;20604;-85
2022/09/07 09:21:01;;;;;;;23.48;17.35;;;;;;;18.91;100.00;101234.16;10397213;28;20088;-85
2022/09/07 09:26:06;;;;;;;24.85;17.45;;;;;;;18.90;100.00;101247.28;10380974;28;20079;-84
2022/09/07 09:31:15;;;;;;;25.70;19.67;;;;;;;19.26;100.00;101251.47;10366854;28;20053;-85
2022/09/07 09:36:24;;;;;;;23.05;18.38;;;;;;;19.26;100.00;101207.63;10387598;28;20116;-86
2022/09/07 09:41:34;;;;;;;22.40;18.23;;;;;;;19.74;100.00;101245.66;10396577;28;20065;-87
2022/09/07 09:46:35;;;;;;;22.27;18.20;;;;;;;19.78;100.00;101227.13;10365011;28;20056;-86
2022/09/07 09:51:40;;;;;;;22.92;17.27;;;;;;;19.84;100.00;101211.13;10379709;28;20096;-84
2022/09/07 09:56:42;;;;;;;20.40;17.98;;;;;;;20.47;100.00;101223.53;10397477;28;20041;-85
2022/09/07 10:01:46;;;;;;;21.73;17.67;;;;;;;20.59;100.00;101226.66;10372272;28;20557;-84
2022/09/07 10:06:59;;;;;;;21.35;17.52;;;;;;;20.67;100.00;101220.31;10366097;28;20034;-85
2022/09/07 10:12:00;;;;;;;21.77;17.45;;;;;;;20.91;100.00;101217.25;10434802;28;20056;-86
2022/09/07 10:17:10;;;;;;;22.88;18.33;;;;;;;21.01;100.00;101227.38;10404430;28;20044;-82
2022/09/07 10:22:30;;;;;;;20.70;18.17;;;;;;;20.54;100.00;101244.34;10404942;28;20147;-84
2022/09/07 10:27:32;;;;;;;21.95;18.65;;;;;;;20.67;100.00;101244.66;10372911;28;20052;-84
2022/09/07 10:32:45;;;;;;;20.90;18.27;;;;;;;20.82;100.00;101244.31;10395719;28;20033;-86
2022/09/07 10:38:03;;;;;;;20.95;16.63;;;;;;;20.79;100.00;101232.94;10396125;28;20044;-84
2022/09/07 10:43:12;;;;;;;32.50;25.20;;;;;;;20.94;100.00;101210.19;10432130;28;20074;-84
2022/09/07 10:48:27;;;;;;;17.50;15.70;;;;;;;20.88;100.00;101206.69;10419281;28;20561;-82
2022/09/07 10:53:52;;;;;;;19.58;14.95;;;;;;;20.92;100.00;101232.09;10404351;28;20053;-80
2022/09/07 10:59:18;;;;;;;20.75;16.20;;;;;;;20.71;100.00;101229.75;10452599;28;20049;-79
2022/09/07 11:04:40;;;;;;;18.65;14.93;;;;;;;20.80;100.00;101234.59;10436140;28;20420;-78
2022/09/07 11:09:56;;;;;;;15.52;13.18;;;;;;;21.32;100.00;101221.03;10435599;28;20036;-78
2022/09/07 11:15:02;;;;;;;14.40;12.30;;;;;;;21.56;100.00;101199.13;10419284;28;20124;-78
2022/09/07 11:20:37;;;;;;;13.55;12.05;;;;;;;21.84;100.00;101215.75;10438550;28;20037;-79
2022/09/07 11:25:44;;;;;;;13.15;11.23;;;;;;;21.94;100.00;101204.25;10385326;28;20057;-79
2022/09/07 11:30:45;;;;;;;;;;;;;;;22.16;100.00;101200.53;10381208;28;20045;-78
2022/09/07 11:35:57;;;;;;;13.65;10.40;;;;;;;22.18;100.00;101189.00;10358324;28;19929;-76
2022/09/07 11:41:14;;;;;;;10.68;9.57;;;;;;;22.49;100.00;101185.28;10380143;28;20049;-76
2022/09/07 11:46:44;;;;;;;12.32;8.52;;;;;;;22.71;100.00;101181.53;10399731;28;20037;-77
2022/09/07 11:51:56;;;;;;;10.57;8.30;;;;;;;22.93;100.00;101194.59;10425437;28;20052;-78
2022/09/07 11:57:03;;;;;;;10.05;7.68;;;;;;;23.33;100.00;101185.97;10422759;28;20048;-77
2022/09/07 12:02:09;;;;;;;;;;;;;;;24.21;100.00;101178.06;10432905;28;20449;-77
2022/09/07 12:07:16;;;;;;;8.93;7.10;;;;;;;24.56;100.00;101181.50;10414951;28;19984;-77
2022/09/07 12:12:25;;;;;;;8.05;6.30;;;;;;;24.82;100.00;101180.47;10441399;28;20496;-78
2022/09/07 12:17:35;;;;;;;7.47;6.00;;;;;;;25.88;100.00;101168.63;10457367;28;20045;-77
2022/09/07 12:22:36;;;;;;;6.57;5.53;;;;;;;26.01;100.00;101160.19;10442807;28;20183;-77
2022/09/07 12:27:37;;;;;;;6.07;4.65;;;;;;;25.60;100.00;101173.28;10442972;28;20112;-78
2022/09/07 12:32:47;;;;;;;6.20;4.70;;;;;;;26.52;97.80;101157.75;10407782;28;20041;-76
2022/09/07 12:37:47;;;;;;;4.88;4.28;;;;;;;26.90;93.32;101142.38;10404228;28;20041;-76
2022/09/07 12:42:48;;;;;;;4.55;4.05;;;;;;;26.33;99.37;101178.94;10424900;28;20025;-77
2022/09/07 12:47:55;;;;;;;6.78;4.65;;;;;;;26.29;94.73;101163.91;10457581;28;20037;-77
2022/09/07 12:53:35;;;;;;;5.50;4.30;;;;;;;26.86;92.83;101156.41;10426238;28;20107;-76
2022/09/07 12:58:54;;;;;;;5.93;4.03;;;;;;;27.10;90.45;101152.66;10393026;28;20495;-75
2022/09/07 13:04:00;;;;;;;17.15;13.35;;;;;;;28.50;86.29;101129.94;10398079;28;20338;-76
2022/09/07 13:09:15;;;;;;;4.55;3.63;;;;;;;28.71;78.10;101101.25;10359835;28;20037;-76
2022/09/07 13:14:20;;;;;;;4.70;3.60;;;;;;;28.84;77.46;101104.75;10447556;28;20543;-77
2022/09/07 13:19:49;;;;;;;4.40;2.90;;;;;;;29.56;74.39;101113.44;10437693;28;20112;-77
2022/09/07 13:24:54;;;;;;;2.75;2.50;;;;;;;28.85;73.81;101109.22;10449601;28;20044;-76
2022/09/07 13:29:56;;;;;;;4.35;3.13;;;;;;;28.65;76.19;101120.56;10424005;28;20404;-77
2022/09/07 13:35:05;;;;;;;3.28;2.72;;;;;;;28.66;77.73;101125.03;10344685;28;20038;-70
2022/09/07 13:40:08;;;;;;;3.97;2.13;;;;;;;27.93;80.04;101133.06;10397826;28;20168;-69
2022/09/07 13:46:07;;;;;;;3.40;2.08;;;;;;;26.70;83.17;101136.56;10397426;28;20041;-70
2022/09/07 13:51:13;;;;;;;3.78;2.00;;;;;;;27.78;79.38;101111.22;10402368;28;20075;-70
2022/09/07 13:56:28;;;;;;;2.50;1.83;;;;;;;29.21;73.81;101099.44;10406681;28;20044;-70
2022/09/07 14:01:29;;;;;;;3.13;1.83;;;;;;;30.02;68.56;101089.06;10438989;28;20083;-72
2022/09/07 14:06:31;;;;;;;2.60;1.80;;;;;;;30.20;66.58;101078.75;10438939;28;20543;-72
2022/09/07 14:11:34;;;;;;;2.35;1.45;;;;;;;30.52;67.23;101087.75;10456033;28;20037;-72
2022/09/07 14:16:35;;;;;;;4.18;1.48;;;;;;;30.02;68.04;101087.03;10455135;28;20278;-70
2022/09/07 14:21:36;;;;;;;3.88;2.05;;;;;;;29.77;65.09;101072.47;10432111;28;20034;-72
2022/09/07 14:26:36;;;;;;;2.83;1.00;;;;;;;29.50;66.63;101063.06;10413263;28;20105;-72
2022/09/07 14:31:37;;;;;;;3.53;1.13;;;;;;;29.24;66.76;101032.66;10364452;28;20045;-71
2022/09/07 14:36:40;;;;;;;2.00;1.50;;;;;;;29.73;65.33;101049.69;10398063;28;20040;-72
2022/09/07 14:41:40;;;;;;;2.45;1.45;;;;;;;29.64;65.64;101056.78;10397187;28;20038;-71
2022/09/07 14:46:41;;;;;;;4.55;1.83;;;;;;;28.17;69.75;101069.75;10395094;28;20037;-71
2022/09/07 14:51:42;;;;;;;4.45;1.52;;;;;;;26.78;72.36;101072.63;10363478;28;20048;-71
2022/09/07 14:56:45;;;;;;;4.05;1.50;;;;;;;25.94;80.97;101108.00;10425577;28;20048;-72
2022/09/07 15:01:46;;;;;;;1.80;1.30;;;;;;;25.85;79.93;101084.69;10435447;28;20037;-72
2022/09/07 15:06:46;;;;;;;1.92;1.20;;;;;;;26.42;79.50;101093.31;10445657;28;20038;-72
2022/09/07 15:11:47;;;;;;;1.42;1.15;;;;;;;26.65;73.68;101074.69;10393880;28;20034;-73
2022/09/07 15:16:59;;;;;;;1.55;0.93;;;;;;;26.44;75.18;101076.84;10431488;28;20052;-72
2022/09/07 15:22:00;;;;;;;1.75;0.80;;;;;;;25.86;77.14;101072.25;10451447;28;20454;-71
2022/09/07 15:27:01;;;;;;;3.50;1.10;;;;;;;26.19;76.37;101082.56;10424607;28;20461;-72
2022/09/07 15:32:02;;;;;;;4.68;1.17;;;;;;;25.90;77.83;101081.69;10409272;28;20365;-69
2022/09/07 15:37:02;;;;;;;2.80;1.17;;;;;;;25.66;77.43;101068.38;10410453;28;20148;-68
2022/09/07 15:42:03;;;;;;;4.60;1.25;;;;;;;25.43;80.95;101076.47;10424827;28;20037;-75
2022/09/07 15:47:04;;;;;;;2.47;1.52;;;;;;;25.10;81.77;101076.50;10426973;28;20034;-70
2022/09/07 15:52:04;;;;;;;3.30;0.95;;;;;;;24.79;83.80;101072.19;10409211;28;20042;-68
2022/09/07 15:57:05;;;;;;;3.58;1.00;;;;;;;24.43;87.11;101068.00;10426785;28;20046;-69
2022/09/07 16:02:07;;;;;;;1.95;0.80;;;;;;;24.43;93.39;101098.13;10425619;28;20072;-69
2022/09/07 16:07:07;;;;;;;2.95;0.90;;;;;;;24.42;96.57;101093.69;10423291;28;20033;-67
2022/09/07 16:12:09;;;;;;;3.15;0.80;;;;;;;24.26;96.98;101066.16;10418394;28;20106;-69
2022/09/07 16:17:09;;;;;;;2.67;1.02;;;;;;;24.18;100.00;101061.41;10418749;28;20456;-69
2022/09/07 16:22:10;;;;;;;2.35;1.17;;;;;;;24.14;100.00;101077.31;10426771;28;20052;-68
2022/09/07 16:27:11;;;;;;;3.75;1.05;;;;;;;24.00;100.00;101082.38;10436103;28;20045;-66
2022/09/07 16:32:11;;;;;;;1.38;1.00;;;;;;;23.85;100.00;101090.25;10438825;28;20037;-65
2022/09/07 16:37:12;;;;;;;2.85;1.00;;;;;;;23.49;100.00;101087.94;10440515;28;20037;-70
2022/09/07 16:42:12;;;;;;;6.05;1.88;;;;;;;23.25;100.00;101094.13;10417409;28;20041;-70
2022/09/07 16:47:13;;;;;;;4.45;2.10;;;;;;;22.99;100.00;101095.00;10419216;28;20044;-68
2022/09/07 16:52:13;;;;;;;2.25;1.70;;;;;;;22.64;100.00;101075.38;10439065;28;20044;-73
2022/09/07 16:57:14;;;;;;;6.25;2.05;;;;;;;22.52;100.00;101089.25;10433432;28;20033;-76
2022/09/07 17:02:16;;;;;;;3.17;1.95;;;;;;;22.25;100.00;101088.41;10406015;28;20111;-72
2022/09/07 17:07:16;;;;;;;2.17;1.58;;;;;;;22.15;100.00;101092.31;10415492;28;20037;-75
2022/09/07 17:12:17;;;;;;;5.20;1.83;;;;;;;22.03;100.00;101102.53;10397110;28;20053;-75
2022/09/07 17:17:18;;;;;;;4.15;1.95;;;;;;;21.62;100.00;101093.38;10394266;28;20037;-76
2022/09/07 17:22:19;;;;;;;3.85;1.95;;;;;;;21.23;100.00;101099.72;10382466;28;20068;-75
2022/09/07 17:27:19;;;;;;;4.25;2.20;;;;;;;20.90;100.00;101114.03;10369322;28;20030;-78
2022/09/07 17:32:20;;;;;;;3.55;1.50;;;;;;;20.59;100.00;101092.41;10427832;28;20045;-77
2022/09/07 17:37:20;;;;;;;2.97;1.67;;;;;;;20.47;100.00;101114.47;10426291;28;20030;-78
2022/09/07 17:42:23;;;;;;;2.80;1.35;;;;;;;20.34;100.00;101111.41;10393799;28;20064;-77
2022/09/07 17:47:23;;;;;;;2.60;1.52;;;;;;;20.28;100.00;101115.44;10408657;28;20046;-78
2022/09/07 17:52:24;;;;;;;2.17;0.95;;;;;;;20.13;100.00;101111.03;10376698;28;20141;-78
2022/09/07 17:57:25;;;;;;;2.22;1.10;;;;;;;19.94;100.00;101116.72;10393124;28;20045;-78
2022/09/07 18:02:26;;;;;;;3.83;1.27;;;;;;;19.67;100.00;101102.75;10416612;28;20040;-78
2022/09/07 18:07:26;;;;;;;5.15;1.73;;;;;;;19.45;100.00;101117.41;10426135;28;20065;-78
2022/09/07 18:12:27;;;;;;;5.78;1.83;;;;;;;19.23;100.00;101124.53;10388609;28;20443;-79
2022/09/07 18:17:27;;;;;;;4.55;1.67;;;;;;;19.12;100.00;101126.69;10413687;28;20119;-78
2022/09/07 18:22:28;;;;;;;4.55;1.83;;;;;;;18.94;100.00;101125.59;10410538;28;20038;-78
2022/09/07 18:27:29;;;;;;;4.45;1.90;;;;;;;18.87;100.00;101133.53;10370601;28;20056;-78
2022/09/07 18:32:30;;;;;;;3.45;1.95;;;;;;;18.70;100.00;101138.78;10394833;28;20032;-78
2022/09/07 18:37:31;;;;;;;3.00;2.17;;;;;;;18.51;100.00;101147.16;10389562;28;20041;-78
2022/09/07 18:42:31;;;;;;;2.65;1.85;;;;;;;18.39;100.00;101146.78;10404971;28;20043;-78
2022/09/07 18:47:32;;;;;;;4.15;2.20;;;;;;;18.25;100.00;101150.31;10379272;28;20034;-80
2022/09/07 18:52:32;;;;;;;5.13;2.10;;;;;;;18.06;100.00;101141.06;10386737;28;20052;-80
2022/09/07 18:57:33;;;;;;;4.03;2.45;;;;;;;18.09;100.00;101157.22;10397939;28;20055;-75
2022/09/07 19:02:34;;;;;;;4.40;2.55;;;;;;;17.81;100.00;101133.84;10403494;28;20553;-79
2022/09/07 19:07:35;;;;;;;5.30;2.38;;;;;;;17.79;100.00;101145.28;10421429;28;20033;-79
2022/09/07 19:12:35;;;;;;;7.88;3.40;;;;;;;17.74;100.00;101148.13;10402971;28;20144;-79
2022/09/07 19:17:37;;;;;;;8.73;3.70;;;;;;;17.73;100.00;101149.25;10403126;28;20044;-78
2022/09/07 19:22:37;;;;;;;6.38;3.03;;;;;;;17.66;100.00;101137.63;10417698;28;20043;-80
2022/09/07 19:27:38;;;;;;;5.43;2.67;;;;;;;17.74;100.00;101139.78;10404497;28;20061;-79
2022/09/07 19:32:39;;;;;;;3.53;2.30;;;;;;;17.73;100.00;101144.50;10403147;28;20462;-77
2022/09/07 19:37:39;;;;;;;3.35;1.90;;;;;;;17.58;100.00;101113.22;10401611;28;20075;-78
2022/09/07 19:42:40;;;;;;;3.28;2.00;;;;;;;17.54;100.00;101136.06;10404912;28;20090;-79
2022/09/07 19:47:40;;;;;;;3.55;1.70;;;;;;;17.37;100.00;101119.00;10426040;28;20041;-79
2022/09/07 19:52:41;;;;;;;4.03;2.90;;;;;;;17.22;100.00;101110.81;10394777;28;20079;-79
2022/09/07 19:57:46;;;;;;;5.45;2.33;;;;;;;17.04;100.00;101110.44;10411743;28;20043;-79
2022/09/07 20:02:48;;;;;;;4.18;2.15;;;;;;;16.99;100.00;101116.06;10412438;28;20052;-79
2022/09/07 20:07:49;;;;;;;4.22;2.28;;;;;;;16.96;100.00;101119.41;10392475;28;20056;-78
2022/09/07 20:12:49;;;;;;;6.43;2.45;;;;;;;16.84;100.00;101122.53;10390152;28;20046;-79
2022/09/07 20:17:50;;;;;;;4.05;2.70;;;;;;;16.67;100.00;101100.69;10395625;28;20044;-77
2022/09/07 20:22:50;;;;;;;5.80;3.05;;;;;;;16.57;100.00;101074.94;10420634;28;20147;-80
2022/09/07 20:27:51;;;;;;;5.03;3.75;;;;;;;16.55;100.00;101076.03;10425802;28;20045;-79
2022/09/07 20:32:51;;;;;;;3.80;3.20;;;;;;;16.60;100.00;101083.53;10359671;28;20049;-79
2022/09/07 20:37:52;;;;;;;8.55;5.10;;;;;;;16.54;100.00;101087.47;10380655;28;20042;-79
2022/09/07 20:42:52;;;;;;;9.15;5.93;;;;;;;16.56;100.00;101082.44;10358241;28;20034;-79
2022/09/07 20:47:54;;;;;;;5.70;5.13;;;;;;;16.53;100.00;101083.00;10357021;28;20061;-79
2022/09/07 20:52:55;;;;;;;5.70;4.22;;;;;;;16.50;100.00;101089.97;10354697;28;20106;-79
2022/09/07 20:57:55;;;;;;;5.80;3.80;;;;;;;16.50;100.00;101094.72;10376728;28;20041;-81
2022/09/07 21:02:56;;;;;;;8.73;3.45;;;;;;;16.44;100.00;101090.31;10426900;28;20064;-79
2022/09/07 21:07:56;;;;;;;5.35;3.38;;;;;;;16.43;100.00;101089.47;10379104;28;20037;-80
2022/09/07 21:12:57;;;;;;;4.80;2.50;;;;;;;16.31;100.00;101097.34;10378022;28;20038;-79
2022/09/07 21:17:58;;;;;;;4.00;2.05;;;;;;;16.13;100.00;101084.94;10394713;28;20030;-79
2022/09/07 21:22:58;;;;;;;6.47;2.20;;;;;;;16.12;100.00;101091.59;10411191;28;20072;-79
2022/09/07 21:27:59;;;;;;;3.80;1.90;;;;;;;16.10;100.00;101110.50;10396786;28;20037;-80
2022/09/07 21:32:59;;;;;;;7.93;2.78;;;;;;;16.02;100.00;101106.41;10379395;28;20379;-75
2022/09/07 21:38:00;;;;;;;5.07;2.45;;;;;;;15.96;100.00;101092.81;10418051;28;20097;-80
2022/09/07 21:43:01;;;;;;;8.40;2.90;;;;;;;15.95;100.00;101091.97;10420446;28;20029;-80
2022/09/07 21:48:01;;;;;;;6.40;3.72;;;;;;;15.80;100.00;101081.78;10378416;28;20389;-81
2022/09/07 21:53:02;;;;;;;12.52;4.32;;;;;;;15.83;100.00;101092.31;10378850;28;20049;-81
2022/09/07 21:58:02;;;;;;;6.80;2.60;;;;;;;15.67;100.00;101076.81;10341281;28;20561;-79
2022/09/07 22:03:03;;;;;;;8.50;3.55;;;;;;;15.68;100.00;101078.47;10322574;28;20053;-80
2022/09/07 22:08:04;;;;;;;5.25;3.13;;;;;;;15.70;100.00;101092.91;10352810;28;20052;-75
2022/09/07 22:13:04;;;;;;;9.40;3.75;;;;;;;15.70;100.00;101090.13;10356144;28;20070;-79
2022/09/07 22:18:05;;;;;;;7.10;2.95;;;;;;;15.70;100.00;101092.91;10377681;28;20045;-80
2022/09/07 22:23:06;;;;;;;5.10;2.67;;;;;;;15.68;100.00;101084.84;10397228;28;20034;-79
2022/09/07 22:28:06;;;;;;;6.55;3.80;;;;;;;15.63;100.00;101075.72;10360022;28;20034;-80
2022/09/07 22:33:07;;;;;;;9.02;5.00;;;;;;;15.69;100.00;101069.03;10343248;28;20103;-79
2022/09/07 22:38:08;;;;;;;9.57;6.10;;;;;;;15.78;100.00;101067.34;10394101;28;20096;-80
2022/09/07 22:43:08;;;;;;;9.90;7.45;;;;;;;15.83;100.00;101075.66;10359637;28;20053;-79
2022/09/07 22:48:09;;;;;;;12.20;9.00;;;;;;;15.86;100.00;101063.16;10330201;28;20041;-79
2022/09/07 22:53:09;;;;;;;14.27;9.70;;;;;;;15.53;100.00;100998.91;10365087;28;20046;-80
2022/09/07 22:58:10;;;;;;;17.85;10.82;;;;;;;15.94;100.00;101055.06;10326793;28;20061;-80